Time;durP1;ratioP1;P1;durP2;ratioP2;P2;SDS_P1;SDS_P2;PMS_P1;PMS_P2;Temp;Humidity;BMP_temperature;BMP_pressure;BME280_temperature;BME280_humidity;BME280_pressure;Samples;Min_cycle;Max_cycle;Signal;HPM_P1;HPM_P2
2023/03/13 00:00:18;;;;;;;;;;;;;;;7.09;95.41;95992.63;5030883;28;20462;-76
2023/03/13 00:02:44;;;;;;;;;;;;;;;7.13;93.13;95980.78;5030948;28;19965;-77
2023/03/13 00:05:10;;;;;;;;;;;;;;;7.13;92.47;95974.78;5031084;28;19952;-75
2023/03/13 00:07:36;;;;;;;;;;;;;;;7.11;92.00;95982.78;5034215;28;19949;-74
2023/03/13 00:10:02;;;;;;;;;;;;;;;7.08;91.66;95978.00;5041558;28;20311;-75
2023/03/13 00:12:28;;;;;;;;;;;;;;;7.05;91.84;95978.41;5030814;28;19951;-76
2023/03/13 00:14:54;;;;;;;;;;;;;;;7.03;91.91;95978.59;5030579;28;20379;-76
2023/03/13 00:17:20;;;;;;;;;;;;;;;7.01;92.08;95975.41;5030765;28;19953;-76
2023/03/13 00:19:46;;;;;;;;;;;;;;;7.00;91.99;95984.25;5031471;28;19946;-76
2023/03/13 00:22:12;;;;;;;;;;;;;;;6.98;92.08;95985.47;5030978;28;19994;-76
2023/03/13 00:24:37;;;;;;;;;;;;;;;6.96;92.00;95985.66;5034372;28;19950;-76
2023/03/13 00:27:04;;;;;;;;;;;;;;;6.96;92.26;95990.88;5021465;28;19951;-77
2023/03/13 00:29:31;;;;;;;;;;;;;;;6.94;92.45;95982.47;5030377;28;19951;-76
2023/03/13 00:31:57;;;;;;;;;;;;;;;6.93;92.80;95988.69;5030247;28;19947;-77
2023/03/13 00:34:26;;;;;;;;;;;;;;;6.91;92.67;95988.09;5030691;28;19954;-76
2023/03/13 00:36:53;;;;;;;;;;;;;;;6.91;92.91;95988.09;5030615;28;19952;-76
2023/03/13 00:39:19;;;;;;;;;;;;;;;6.90;92.56;95981.28;5032942;28;20410;-77
2023/03/13 00:41:45;;;;;;;;;;;;;;;6.91;92.59;95980.28;5034696;28;19973;-77
2023/03/13 00:44:11;;;;;;;;;;;;;;;6.89;93.32;95983.09;5016332;28;20373;-78
2023/03/13 00:46:37;;;;;;;;;;;;;;;6.89;93.02;95977.88;5034804;28;19953;-76
2023/03/13 00:49:03;;;;;;;;;;;;;;;6.90;93.03;95986.47;5034122;28;19952;-76
2023/03/13 00:51:30;;;;;;;;;;;;;;;6.90;93.14;95981.28;5033825;28;19965;-76
2023/03/13 00:53:58;;;;;;;;;;;;;;;6.90;92.71;95976.84;5034046;28;19950;-75
2023/03/13 00:56:25;;;;;;;;;;;;;;;6.90;92.84;95973.44;5033709;28;19954;-75
2023/03/13 00:58:51;;;;;;;;;;;;;;;6.92;92.14;95961.00;5034516;28;19952;-77
2023/03/13 01:01:23;;;;;;;;;;;;;;;6.96;92.51;95966.63;5020545;28;19940;-76
2023/03/13 01:03:50;;;;;;;;;;;;;;;6.98;92.17;95957.59;5033633;28;19949;-77
2023/03/13 01:06:17;;;;;;;;;;;;;;;6.99;92.24;95955.78;5034020;28;19960;-76
2023/03/13 01:08:43;;;;;;;;;;;;;;;7.01;91.60;95943.31;5033512;28;19958;-78
2023/03/13 01:11:11;;;;;;;;;;;;;;;7.06;91.23;95940.91;5016187;28;20051;-76
2023/03/13 01:13:37;;;;;;;;;;;;;;;7.09;90.98;95943.09;5015457;28;19953;-79
2023/03/13 01:16:04;;;;;;;;;;;;;;;7.11;90.46;95935.88;5040643;28;19958;-77
2023/03/13 01:18:30;;;;;;;;;;;;;;;7.15;90.43;95931.03;5034586;28;20404;-78
2023/03/13 01:20:56;;;;;;;;;;;;;;;7.18;90.15;95925.41;5033666;28;20336;-75
2023/03/13 01:23:22;;;;;;;;;;;;;;;7.19;90.11;95927.00;5033423;28;19947;-75
2023/03/13 01:25:48;;;;;;;;;;;;;;;7.20;89.79;95916.38;5033531;28;20298;-75
2023/03/13 01:28:14;;;;;;;;;;;;;;;7.22;89.92;95916.16;5033618;28;19951;-76
2023/03/13 01:30:40;;;;;;;;;;;;;;;7.23;89.60;95908.13;5033121;28;19997;-76
2023/03/13 01:33:05;;;;;;;;;;;;;;;7.23;89.87;95902.91;5048523;28;20454;-75
2023/03/13 01:35:31;;;;;;;;;;;;;;;7.24;89.84;95901.88;5033088;28;20393;-75
2023/03/13 01:37:57;;;;;;;;;;;;;;;7.25;89.56;95893.06;5033042;28;19952;-76
2023/03/13 01:40:23;;;;;;;;;;;;;;;7.25;89.88;95889.66;5033120;28;20043;-76
2023/03/13 01:42:53;;;;;;;;;;;;;;;7.26;89.38;95886.81;5032978;28;19946;-76
2023/03/13 01:45:37;;;;;;;;;;;;;;;7.26;89.49;95878.22;5033220;28;19979;-76
2023/03/13 01:48:03;;;;;;;;;;;;;;;7.27;89.53;95875.41;5033124;28;19944;-77
2023/03/13 01:50:29;;;;;;;;;;;;;;;7.27;89.83;95869.38;5032937;28;19956;-77
2023/03/13 01:52:55;;;;;;;;;;;;;;;7.27;89.40;95862.34;5033090;28;19951;-76
2023/03/13 01:55:21;;;;;;;;;;;;;;;7.28;89.69;95863.16;5015774;28;19976;-76
2023/03/13 01:57:49;;;;;;;;;;;;;;;7.27;89.78;95861.56;5032460;28;19946;-76
2023/03/13 02:00:21;;;;;;;;;;;;;;;7.28;89.89;95863.94;5010166;27;20316;-78
2023/03/13 02:02:53;;;;;;;;;;;;;;;7.29;90.03;95872.59;5049437;27;19950;-77
2023/03/13 02:05:19;;;;;;;;;;;;;;;7.28;90.24;95866.56;5032900;28;19948;-78
2023/03/13 02:07:48;;;;;;;;;;;;;;;7.29;90.10;95864.75;5037622;27;19944;-78
2023/03/13 02:10:16;;;;;;;;;;;;;;;7.27;90.16;95870.19;5032679;28;19965;-78
2023/03/13 02:12:43;;;;;;;;;;;;;;;7.26;90.26;95868.56;5015426;28;20317;-78
2023/03/13 02:15:14;;;;;;;;;;;;;;;7.26;90.50;95862.56;5032582;28;19942;-78
2023/03/13 02:17:40;;;;;;;;;;;;;;;7.23;90.79;95863.78;5032468;28;20397;-78
2023/03/13 02:20:07;;;;;;;;;;;;;;;7.22;91.20;95861.38;5101339;27;20328;-78
2023/03/13 02:22:56;;;;;;;;;;;;;;;7.21;91.02;95860.59;5033005;28;19956;-78
2023/03/13 02:25:22;;;;;;;;;;;;;;;7.20;91.03;95859.00;5045396;28;20333;-78
2023/03/13 02:27:50;;;;;;;;;;;;;;;7.18;91.38;95855.00;5014857;28;20004;-77
2023/03/13 02:30:16;;;;;;;;;;;;;;;7.16;91.20;95838.75;5032094;28;19963;-77
2023/03/13 02:32:43;;;;;;;;;;;;;;;7.16;92.05;95843.97;5032946;28;20012;-78
2023/03/13 02:35:13;;;;;;;;;;;;;;;7.14;91.64;95839.00;5032317;28;19942;-78
2023/03/13 02:37:43;;;;;;;;;;;;;;;7.15;92.22;95840.56;5032062;28;19977;-77
2023/03/13 02:40:11;;;;;;;;;;;;;;;7.14;92.30;95843.38;5033000;28;20338;-79
2023/03/13 02:42:39;;;;;;;;;;;;;;;7.14;92.61;95835.56;5022519;28;19944;-77
2023/03/13 02:45:06;;;;;;;;;;;;;;;7.14;92.58;95841.59;5033566;28;20303;-77
2023/03/13 02:47:31;;;;;;;;;;;;;;;7.14;92.33;95822.53;5032547;28;19959;-77
2023/03/13 02:49:57;;;;;;;;;;;;;;;7.16;92.76;95831.75;5032081;28;19954;-77
2023/03/13 02:52:27;;;;;;;;;;;;;;;7.16;92.92;95817.91;5014479;28;20397;-77
2023/03/13 02:55:03;;;;;;;;;;;;;;;7.17;93.29;95819.50;5032060;28;19953;-77
2023/03/13 02:57:30;;;;;;;;;;;;;;;7.18;93.81;95821.09;5015121;28;19943;-77
2023/03/13 02:59:56;;;;;;;;;;;;;;;7.18;94.27;95813.28;5014348;28;19949;-77
2023/03/13 03:02:22;;;;;;;;;;;;;;;7.21;94.10;95811.03;5031580;28;20408;-76
2023/03/13 03:04:48;;;;;;;;;;;;;;;7.23;94.53;95800.41;5032071;28;19993;-76
2023/03/13 03:07:14;;;;;;;;;;;;;;;7.26;94.06;95795.53;5031878;28;19946;-76
2023/03/13 03:09:40;;;;;;;;;;;;;;;7.28;95.05;95790.13;5031557;28;20000;-76
2023/03/13 03:12:06;;;;;;;;;;;;;;;7.31;96.00;95794.94;5028223;27;19992;-76
2023/03/13 03:14:32;;;;;;;;;;;;;;;7.32;94.94;95775.66;5030958;28;19957;-76
2023/03/13 03:16:58;;;;;;;;;;;;;;;7.32;95.91;95768.63;5030992;28;19946;-76
2023/03/13 03:19:24;;;;;;;;;;;;;;;7.38;95.53;95779.22;5031682;28;19949;-76
2023/03/13 03:21:49;;;;;;;;;;;;;;;7.37;95.94;95767.19;5030139;28;19948;-76
2023/03/13 03:24:15;;;;;;;;;;;;;;;7.38;96.49;95766.19;5003556;28;19953;-76
2023/03/13 03:26:41;;;;;;;;;;;;;;;7.38;96.68;95771.41;5031458;28;19949;-75
2023/03/13 03:29:07;;;;;;;;;;;;;;;7.39;97.91;95773.81;5031600;28;19954;-76
2023/03/13 03:31:33;;;;;;;;;;;;;;;7.43;100.00;95774.97;5014463;28;20484;-76
2023/03/13 03:33:59;;;;;;;;;;;;;;;7.48;100.00;95762.06;5031042;28;19956;-75
2023/03/13 03:36:25;;;;;;;;;;;;;;;7.61;100.00;95768.19;5031408;28;20043;-75
2023/03/13 03:38:51;;;;;;;;;;;;;;;7.82;100.00;95759.94;5031319;28;20406;-75
2023/03/13 03:41:18;;;;;;;;;;;;;;;8.12;100.00;95751.34;5031194;28;20413;-75
2023/03/13 03:43:44;;;;;;;;;;;;;;;8.33;100.00;95748.28;5031227;28;19973;-76
2023/03/13 03:46:10;;;;;;;;;;;;;;;8.51;100.00;95742.25;5031863;28;19954;-76
2023/03/13 03:48:36;;;;;;;;;;;;;;;8.64;100.00;95746.50;5032113;28;20354;-76
2023/03/13 03:51:02;;;;;;;;;;;;;;;8.77;100.00;95755.19;5031211;28;19953;-77
2023/03/13 03:53:28;;;;;;;;;;;;;;;8.86;100.00;95749.44;5031138;28;20333;-77
2023/03/13 03:55:54;;;;;;;;;;;;;;;8.94;100.00;95748.28;5031542;28;19996;-76
2023/03/13 03:58:20;;;;;;;;;;;;;;;8.97;100.00;95758.31;5031107;28;20303;-76
2023/03/13 04:00:46;;;;;;;;;;;;;;;9.02;100.00;95763.66;5031333;28;19957;-76
2023/03/13 04:03:13;;;;;;;;;;;;;;;9.02;100.00;95761.03;5013207;28;19950;-77
2023/03/13 04:05:39;;;;;;;;;;;;;;;9.06;100.00;95758.78;5031715;28;19950;-76
2023/03/13 04:08:05;;;;;;;;;;;;;;;9.08;100.00;95759.34;5030954;28;20369;-76
2023/03/13 04:10:31;;;;;;;;;;;;;;;9.09;100.00;95768.78;5031285;28;19952;-76
2023/03/13 04:12:57;;;;;;;;;;;;;;;9.08;100.00;95757.53;5030022;28;20024;-76
2023/03/13 04:15:23;;;;;;;;;;;;;;;9.10;100.00;95747.63;5031030;28;19950;-76
2023/03/13 04:17:48;;;;;;;;;;;;;;;9.08;100.00;95744.44;5057006;28;19988;-76
2023/03/13 04:20:14;;;;;;;;;;;;;;;9.09;100.00;95745.25;5030835;28;19996;-78
2023/03/13 04:22:41;;;;;;;;;;;;;;;9.11;100.00;95746.63;5031193;28;19993;-79
2023/03/13 04:25:07;;;;;;;;;;;;;;;9.13;100.00;95749.00;5030598;28;19957;-78
2023/03/13 04:27:33;;;;;;;;;;;;;;;9.15;100.00;95749.56;5046202;28;19957;-78
2023/03/13 04:29:59;;;;;;;;;;;;;;;9.16;100.00;95745.94;5031027;28;20319;-78
2023/03/13 04:32:25;;;;;;;;;;;;;;;9.16;100.00;95732.09;5030529;28;19973;-78
2023/03/13 04:34:51;;;;;;;;;;;;;;;9.16;100.00;95730.25;5030472;28;19959;-78
2023/03/13 04:37:17;;;;;;;;;;;;;;;9.18;100.00;95730.03;5030613;28;19949;-78
2023/03/13 04:39:43;;;;;;;;;;;;;;;9.19;100.00;95735.03;5035181;28;20374;-78
2023/03/13 04:42:10;;;;;;;;;;;;;;;9.21;100.00;95734.81;5041383;28;20004;-77
2023/03/13 04:44:36;;;;;;;;;;;;;;;9.21;100.00;95727.75;5030397;28;19963;-78
2023/03/13 04:47:02;;;;;;;;;;;;;;;9.21;100.00;95730.34;5030423;28;19961;-77
2023/03/13 04:49:28;;;;;;;;;;;;;;;9.22;100.00;95728.53;5012698;28;19949;-78
2023/03/13 04:51:54;;;;;;;;;;;;;;;9.25;100.00;95728.09;5030471;28;20070;-78
2023/03/13 04:54:20;;;;;;;;;;;;;;;9.27;100.00;95716.38;5012619;28;19951;-77
2023/03/13 04:56:46;;;;;;;;;;;;;;;9.29;100.00;95724.78;5031049;28;19952;-77
2023/03/13 04:59:12;;;;;;;;;;;;;;;9.30;100.00;95734.25;5030707;28;20325;-78
2023/03/13 05:01:38;;;;;;;;;;;;;;;9.34;100.00;95719.69;5026233;28;20393;-82
2023/03/13 05:04:04;;;;;;;;;;;;;;;9.36;100.00;95714.22;5029123;28;19964;-78
2023/03/13 05:06:30;;;;;;;;;;;;;;;9.38;100.00;95717.41;5029355;28;19962;-78
2023/03/13 05:08:56;;;;;;;;;;;;;;;9.40;100.00;95719.78;5029617;28;20365;-78
2023/03/13 05:11:22;;;;;;;;;;;;;;;9.42;100.00;95712.50;5030164;28;20324;-77
2023/03/13 05:13:47;;;;;;;;;;;;;;;9.45;100.00;95702.38;5028860;28;19942;-77
2023/03/13 05:16:14;;;;;;;;;;;;;;;9.45;100.00;95725.94;5013474;28;20296;-79
2023/03/13 05:18:40;;;;;;;;;;;;;;;9.48;100.00;95724.69;5030138;28;19940;-78
2023/03/13 05:21:06;;;;;;;;;;;;;;;9.50;100.00;95718.19;5029377;28;19986;-78
2023/03/13 05:23:32;;;;;;;;;;;;;;;9.55;100.00;95718.31;5027344;28;19952;-78
2023/03/13 05:25:58;;;;;;;;;;;;;;;9.58;100.00;95730.16;5023683;28;20319;-80
2023/03/13 05:28:25;;;;;;;;;;;;;;;9.60;100.00;95724.69;5032578;28;19966;-78
2023/03/13 05:30:51;;;;;;;;;;;;;;;9.64;100.00;95723.19;5032926;28;19948;-78
2023/03/13 05:33:18;;;;;;;;;;;;;;;9.65;100.00;95716.94;5021377;27;20326;-78
2023/03/13 05:35:44;;;;;;;;;;;;;;;9.67;100.00;95707.81;5044909;27;19952;-78
2023/03/13 05:38:10;;;;;;;;;;;;;;;9.70;100.00;95727.50;5027375;28;19975;-78
2023/03/13 05:40:36;;;;;;;;;;;;;;;9.72;100.00;95721.03;5027138;28;19955;-78
2023/03/13 05:43:02;;;;;;;;;;;;;;;9.76;100.00;95713.50;5032457;27;19988;-78
2023/03/13 05:45:28;;;;;;;;;;;;;;;9.79;100.00;95709.63;5032505;27;20338;-78
2023/03/13 05:47:54;;;;;;;;;;;;;;;9.82;100.00;95720.44;5021357;28;19953;-78
2023/03/13 05:50:20;;;;;;;;;;;;;;;9.85;100.00;95711.31;5032187;27;19959;-78
2023/03/13 05:52:46;;;;;;;;;;;;;;;9.84;100.00;95710.53;5021354;28;19974;-78
2023/03/13 05:55:11;;;;;;;;;;;;;;;9.84;100.00;95707.91;5032071;28;20056;-78
2023/03/13 05:57:38;;;;;;;;;;;;;;;9.84;100.00;95707.91;5032271;27;20461;-78
2023/03/13 06:00:04;;;;;;;;;;;;;;;9.83;100.00;95722.03;5032875;28;19956;-78
2023/03/13 06:02:30;;;;;;;;;;;;;;;9.83;100.00;95716.00;5032695;28;20396;-79
2023/03/13 06:04:56;;;;;;;;;;;;;;;9.84;100.00;95704.50;5015179;28;19952;-78
2023/03/13 06:07:21;;;;;;;;;;;;;;;9.84;100.00;95707.13;5033394;28;20006;-78
2023/03/13 06:09:47;;;;;;;;;;;;;;;9.86;100.00;95705.06;5032634;28;19950;-78
2023/03/13 06:12:13;;;;;;;;;;;;;;;9.86;100.00;95713.69;5015162;28;19968;-78
2023/03/13 06:14:39;;;;;;;;;;;;;;;9.86;100.00;95698.00;5032502;28;19947;-77
2023/03/13 06:17:05;;;;;;;;;;;;;;;9.87;100.00;95711.88;5032695;28;19950;-78
2023/03/13 06:19:31;;;;;;;;;;;;;;;9.88;100.00;95710.88;5032374;28;19999;-76
2023/03/13 06:21:57;;;;;;;;;;;;;;;9.88;100.00;95706.41;5015333;28;19940;-76
2023/03/13 06:24:23;;;;;;;;;;;;;;;9.89;100.00;95710.63;5032423;28;20426;-76
2023/03/13 06:26:49;;;;;;;;;;;;;;;9.91;100.00;95718.25;5032364;28;20033;-77
2023/03/13 06:29:15;;;;;;;;;;;;;;;9.93;100.00;95713.56;5032415;28;19946;-76
2023/03/13 06:31:41;;;;;;;;;;;;;;;9.95;100.00;95707.09;5032263;28;19981;-78
2023/03/13 06:34:09;;;;;;;;;;;;;;;10.00;100.00;95716.88;5032428;28;19947;-76
2023/03/13 06:36:35;;;;;;;;;;;;;;;10.03;100.00;95726.09;5031190;28;19952;-76
2023/03/13 06:39:02;;;;;;;;;;;;;;;10.05;100.00;95726.66;5032271;28;20341;-76
2023/03/13 06:41:27;;;;;;;;;;;;;;;10.06;100.00;95709.91;5031669;28;19953;-77
2023/03/13 06:43:53;;;;;;;;;;;;;;;10.08;100.00;95721.75;5014327;28;19970;-77
2023/03/13 06:46:21;;;;;;;;;;;;;;;10.09;100.00;95715.47;5032163;28;20431;-77
2023/03/13 06:48:47;;;;;;;;;;;;;;;10.12;100.00;95722.06;5032366;28;19947;-77
2023/03/13 06:51:14;;;;;;;;;;;;;;;10.14;100.00;95720.00;5032208;28;19966;-78
2023/03/13 06:53:40;;;;;;;;;;;;;;;10.15;100.00;95719.00;5032003;28;19951;-77
2023/03/13 06:56:07;;;;;;;;;;;;;;;10.16;100.00;95721.38;5031882;28;20424;-76
2023/03/13 06:58:32;;;;;;;;;;;;;;;10.20;100.00;95720.91;5032142;28;19947;-76
2023/03/13 07:01:09;;;;;;;;;;;;;;;10.20;100.00;95718.28;5032173;28;20418;-78
2023/03/13 07:03:35;;;;;;;;;;;;;;;10.21;100.00;95719.91;5024771;28;19946;-77
2023/03/13 07:06:02;;;;;;;;;;;;;;;10.22;100.00;95714.41;5031799;28;20393;-76
2023/03/13 07:08:28;;;;;;;;;;;;;;;10.24;100.00;95728.06;5032096;28;19974;-77
2023/03/13 07:10:57;;;;;;;;;;;;;;;10.27;100.00;95732.06;5032024;28;19954;-77
2023/03/13 07:13:23;;;;;;;;;;;;;;;10.30;100.00;95723.75;5031816;28;19950;-77
2023/03/13 07:15:50;;;;;;;;;;;;;;;10.33;100.00;95736.38;5031650;28;19952;-76
2023/03/13 07:18:16;;;;;;;;;;;;;;;10.36;100.00;95736.72;5031558;28;19955;-78
2023/03/13 07:20:42;;;;;;;;;;;;;;;10.40;100.00;95729.19;5031884;28;19949;-78
2023/03/13 07:23:08;;;;;;;;;;;;;;;10.44;100.00;95735.56;5031601;28;19946;-76
2023/03/13 07:25:34;;;;;;;;;;;;;;;10.47;100.00;95727.22;5031427;28;20415;-77
2023/03/13 07:28:00;;;;;;;;;;;;;;;10.50;100.00;95713.66;5013636;28;19953;-76
2023/03/13 07:30:26;;;;;;;;;;;;;;;10.53;100.00;95718.41;5031639;28;19947;-76
2023/03/13 07:32:52;;;;;;;;;;;;;;;10.58;100.00;95709.84;5031238;28;19960;-77
2023/03/13 07:35:18;;;;;;;;;;;;;;;10.61;100.00;95714.63;5031355;28;20026;-76
2023/03/13 07:37:44;;;;;;;;;;;;;;;10.64;100.00;95706.28;5031499;28;20038;-76
2023/03/13 07:40:10;;;;;;;;;;;;;;;10.70;100.00;95720.28;5031250;28;20355;-76
2023/03/13 07:42:39;;;;;;;;;;;;;;;10.72;100.00;95705.88;5031535;28;19975;-77
2023/03/13 07:45:05;;;;;;;;;;;;;;;10.74;100.00;95703.81;5031219;28;20459;-76
2023/03/13 07:47:32;;;;;;;;;;;;;;;10.76;100.00;95683.41;5031135;28;20410;-75
2023/03/13 07:49:58;;;;;;;;;;;;;;;10.80;100.00;95696.06;5031723;28;19950;-75
2023/03/13 07:52:26;;;;;;;;;;;;;;;10.85;100.00;95696.13;5031001;28;19966;-76
2023/03/13 07:54:53;;;;;;;;;;;;;;;10.87;100.00;95686.19;5031342;28;19955;-78
2023/03/13 07:57:19;;;;;;;;;;;;;;;10.89;100.00;95695.41;5031051;28;19982;-78
2023/03/13 07:59:45;;;;;;;;;;;;;;;10.92;100.00;95681.06;5031960;28;19947;-78
2023/03/13 08:02:12;;;;;;;;;;;;;;;10.95;100.00;95683.19;5030922;28;20467;-76
2023/03/13 08:04:38;;;;;;;;;;;;;;;10.99;100.00;95675.63;5031116;28;20399;-77
2023/03/13 08:07:11;;;;;;;;;;;;;;;11.06;100.00;95668.38;5030949;28;19966;-76
2023/03/13 08:09:36;;;;;;;;;;;;;;;11.11;100.00;95656.16;5013521;28;20434;-76
2023/03/13 08:12:03;;;;;;;;;;;;;;;11.15;100.00;95633.66;5030677;28;19977;-78
2023/03/13 08:14:29;;;;;;;;;;;;;;;11.23;100.00;95631.63;5031078;28;20028;-77
2023/03/13 08:16:54;;;;;;;;;;;;;;;11.31;100.00;95637.25;5030913;28;19955;-77
2023/03/13 08:19:20;;;;;;;;;;;;;;;11.38;99.87;95640.53;5013625;28;19955;-77
2023/03/13 08:21:46;;;;;;;;;;;;;;;11.46;99.66;95644.53;5013414;28;19948;-76
2023/03/13 08:24:12;;;;;;;;;;;;;;;11.52;99.19;95629.66;5030648;28;19959;-76
2023/03/13 08:26:39;;;;;;;;;;;;;;;11.57;98.00;95640.25;5030588;28;19953;-77
2023/03/13 08:29:10;;;;;;;;;;;;;;;11.65;98.07;95634.53;5032186;28;20311;-76
2023/03/13 08:31:37;;;;;;;;;;;;;;;11.70;97.25;95634.63;5030529;28;19962;-77
2023/03/13 08:34:03;;;;;;;;;;;;;;;11.72;97.43;95635.16;5030607;28;19945;-77
2023/03/13 08:36:35;;;;;;;;;;;;;;;11.73;97.25;95634.09;5030717;28;19951;-77
2023/03/13 08:39:03;;;;;;;;;;;;;;;11.75;96.88;95628.63;5030559;28;20422;-77
2023/03/13 08:41:33;;;;;;;;;;;;;;;11.76;96.82;95638.88;5030410;28;19947;-77
2023/03/13 08:43:59;;;;;;;;;;;;;;;11.81;96.71;95629.47;5029256;28;19982;-76
2023/03/13 08:46:28;;;;;;;;;;;;;;;11.84;95.88;95640.28;5030500;28;19958;-78
2023/03/13 08:48:54;;;;;;;;;;;;;;;11.90;95.35;95634.06;5012972;28;19951;-78
2023/03/13 08:51:21;;;;;;;;;;;;;;;11.95;95.14;95649.13;5030261;28;20425;-78
2023/03/13 08:53:47;;;;;;;;;;;;;;;12.04;95.98;95652.88;5030376;28;20397;-79
2023/03/13 08:56:14;;;;;;;;;;;;;;;12.12;95.00;95649.81;5030207;28;19953;-78
2023/03/13 08:58:40;;;;;;;;;;;;;;;12.19;94.58;95639.13;5030421;28;19973;-78
2023/03/13 09:01:07;;;;;;;;;;;;;;;12.22;94.54;95638.63;5033631;28;19957;-78
2023/03/13 09:03:34;;;;;;;;;;;;;;;12.27;94.57;95657.06;5033903;28;20290;-78
2023/03/13 09:06:00;;;;;;;;;;;;;;;12.28;94.26;95653.38;5033787;28;19942;-77
2023/03/13 09:08:27;;;;;;;;;;;;;;;12.29;93.89;95652.34;5033771;28;19956;-78
2023/03/13 09:10:57;;;;;;;;;;;;;;;12.29;92.85;95641.84;5033610;28;20401;-77
2023/03/13 09:13:23;;;;;;;;;;;;;;;12.30;93.24;95637.38;5033454;28;19968;-78
2023/03/13 09:15:56;;;;;;;;;;;;;;;12.33;92.81;95645.56;5033666;28;19945;-77
2023/03/13 09:18:22;;;;;;;;;;;;;;;12.38;93.02;95642.97;5033595;28;19952;-78
2023/03/13 09:20:47;;;;;;;;;;;;;;;12.46;92.44;95643.59;5033343;28;20349;-77
2023/03/13 09:23:13;;;;;;;;;;;;;;;12.58;92.22;95633.69;5033330;28;19982;-78
2023/03/13 09:25:39;;;;;;;;;;;;;;;12.79;92.06;95637.28;5033972;28;19984;-78
2023/03/13 09:28:05;;;;;;;;;;;;;;;12.92;89.55;95626.31;5033325;28;19978;-79
2023/03/13 09:30:31;;;;;;;;;;;;;;;12.94;88.15;95605.81;5033551;28;20291;-78
2023/03/13 09:32:57;;;;;;;;;;;;;;;13.04;86.59;95612.19;5033189;28;20414;-78
2023/03/13 09:35:22;;;;;;;;;;;;;;;13.15;87.45;95617.28;5033180;28;20456;-78
2023/03/13 09:37:48;;;;;;;;;;;;;;;13.19;86.31;95610.44;5033246;28;19955;-78
2023/03/13 09:40:17;;;;;;;;;;;;;;;13.29;85.95;95606.31;5033451;28;19950;-78
2023/03/13 09:42:43;;;;;;;;;;;;;;;13.50;85.95;95609.84;5033106;28;19940;-78
2023/03/13 09:45:12;;;;;;;;;;;;;;;13.77;82.95;95589.41;5033310;28;19980;-78
2023/03/13 09:47:44;;;;;;;;;;;;;;;13.99;82.74;95591.06;5032761;28;19955;-78
2023/03/13 09:50:10;;;;;;;;;;;;;;;14.06;81.32;95582.88;5033529;28;20327;-79
2023/03/13 09:52:40;;;;;;;;;;;;;;;14.00;80.15;95564.41;5015070;28;19967;-78
2023/03/13 09:55:16;;;;;;;;;;;;;;;13.97;80.98;95566.78;5033222;28;19958;-78
2023/03/13 09:57:44;;;;;;;;;;;;;;;13.93;80.60;95555.19;5032926;28;19950;-78
2023/03/13 10:00:12;;;;;;;;;;;;;;;13.95;80.53;95561.00;5032787;28;19943;-78
2023/03/13 10:02:39;;;;;;;;;;;;;;;13.95;79.47;95550.44;5032970;28;19944;-78
2023/03/13 10:05:09;;;;;;;;;;;;;;;13.98;80.63;95557.81;5032770;28;19946;-77
2023/03/13 10:07:35;;;;;;;;;;;;;;;14.07;80.15;95544.91;5033116;28;19950;-78
2023/03/13 10:10:01;;;;;;;;;;;;;;;14.24;80.92;95560.47;5032528;28;19947;-78
2023/03/13 10:12:28;;;;;;;;;;;;;;;14.46;78.86;95534.66;5031741;28;19959;-78
2023/03/13 10:15:13;;;;;;;;;;;;;;;14.79;78.17;95520.13;5033237;28;19946;-78
2023/03/13 10:17:39;;;;;;;;;;;;;;;15.09;75.55;95486.00;5032777;28;20319;-78
2023/03/13 10:20:25;;;;;;;;;;;;;;;15.26;75.64;95486.47;5032504;28;19956;-78
2023/03/13 10:23:01;;;;;;;;;;;;;;;15.47;72.60;95455.44;5014906;28;20319;-78
2023/03/13 10:25:34;;;;;;;;;;;;;;;15.60;70.95;95444.28;5032841;28;19969;-78
2023/03/13 10:28:01;;;;;;;;;;;;;;;15.71;72.07;95445.00;5032563;28;19950;-78
2023/03/13 10:30:27;;;;;;;;;;;;;;;15.69;72.22;95457.72;5032589;28;19959;-78
2023/03/13 10:33:00;;;;;;;;;;;;;;;15.70;73.57;95458.50;5032517;28;20354;-78
2023/03/13 10:35:39;;;;;;;;;;;;;;;15.68;74.24;95469.31;5018786;28;19951;-78
2023/03/13 10:38:12;;;;;;;;;;;;;;;15.63;72.66;95450.88;5032858;28;20291;-78
2023/03/13 10:40:38;;;;;;;;;;;;;;;15.56;72.69;95437.97;5014542;28;19957;-78
2023/03/13 10:43:19;;;;;;;;;;;;;;;15.44;71.45;95426.94;5032335;28;19940;-78
2023/03/13 10:45:45;;;;;;;;;;;;;;;15.38;70.47;95409.53;5020377;28;19970;-78
2023/03/13 10:48:11;;;;;;;;;;;;;;;15.37;73.13;95444.94;4998279;28;19961;-78
2023/03/13 10:50:40;;;;;;;;;;;;;;;15.33;72.78;95431.50;5032227;28;19986;-78
2023/03/13 10:53:19;;;;;;;;;;;;;;;15.35;74.15;95437.31;5032103;28;19967;-78
2023/03/13 10:55:45;;;;;;;;;;;;;;;15.37;70.81;95403.47;5031278;28;19943;-78
2023/03/13 10:58:19;;;;;;;;;;;;;;;15.42;71.45;95392.88;5031938;28;19991;-78
2023/03/13 11:00:45;;;;;;;;;;;;;;;15.47;71.79;95402.59;5031085;28;19944;-78
2023/03/13 11:03:25;;;;;;;;;;;;;;;15.54;72.58;95392.53;5031749;28;20000;-77
2023/03/13 11:05:56;;;;;;;;;;;;;;;15.63;74.65;95416.53;5032192;28;20316;-78
2023/03/13 11:08:24;;;;;;;;;;;;;;;15.73;73.02;95405.13;5031821;28;19941;-78
2023/03/13 11:10:51;;;;;;;;;;;;;;;15.75;71.28;95387.91;5031613;28;19948;-77
2023/03/13 11:13:26;;;;;;;;;;;;;;;15.83;69.90;95378.59;5031969;28;19955;-78
2023/03/13 11:15:56;;;;;;;;;;;;;;;15.95;71.33;95391.44;5031749;28;19944;-77
2023/03/13 11:18:30;;;;;;;;;;;;;;;16.06;70.24;95355.13;5031670;28;20337;-78
2023/03/13 11:20:56;;;;;;;;;;;;;;;16.51;70.77;95351.22;5014329;28;19944;-77
2023/03/13 11:23:22;;;;;;;;;;;;;;;16.97;67.51;95340.09;5031096;28;19949;-78
2023/03/13 11:26:13;;;;;;;;;;;;;;;17.37;65.71;95306.16;5031265;28;19950;-78
2023/03/13 11:28:46;;;;;;;;;;;;;;;17.75;63.54;95287.50;5031797;28;19953;-78
2023/03/13 11:31:32;;;;;;;;;;;;;;;18.04;61.69;95393.41;5031664;28;19953;-78
2023/03/13 11:34:01;;;;;;;;;;;;;;;18.28;61.03;95381.84;5031412;28;19968;-78
2023/03/13 11:36:44;;;;;;;;;;;;;;;18.40;59.89;95384.81;5031514;28;20405;-75
2023/03/13 11:39:16;;;;;;;;;;;;;;;18.53;58.35;95379.81;5031887;28;19951;-78
2023/03/13 11:41:42;;;;;;;;;;;;;;;18.77;61.13;95396.34;5031477;28;19949;-78
2023/03/13 11:44:17;;;;;;;;;;;;;;;19.01;60.64;95371.47;5031180;28;19970;-78
2023/03/13 11:47:01;;;;;;;;;;;;;;;19.17;58.85;95362.09;5031727;28;19968;-77
2023/03/13 11:49:33;;;;;;;;;;;;;;;19.35;58.38;95364.88;5031133;28;20320;-78
2023/03/13 11:52:03;;;;;;;;;;;;;;;19.46;57.64;95360.91;5031567;28;19945;-77
2023/03/13 11:54:36;;;;;;;;;;;;;;;19.51;55.48;95350.16;5031236;28;19947;-75
2023/03/13 11:57:13;;;;;;;;;;;;;;;19.60;57.66;95355.53;5030918;28;19949;-77
2023/03/13 12:00:11;;;;;;;;;;;;;;;19.62;54.69;95346.16;5031087;28;20421;-77
2023/03/13 12:03:03;;;;;;;;;;;;;;;19.63;56.97;95350.41;5018459;28;19956;-77
2023/03/13 12:05:33;;;;;;;;;;;;;;;19.59;55.45;95338.00;5031672;28;19952;-78
2023/03/13 12:08:04;;;;;;;;;;;;;;;19.43;53.19;95326.97;5030992;28;19959;-78
2023/03/13 12:10:39;;;;;;;;;;;;;;;19.37;54.38;95318.31;5016367;28;19946;-77
2023/03/13 12:13:14;;;;;;;;;;;;;;;19.33;52.95;95313.91;5030753;28;19959;-77
2023/03/13 12:15:42;;;;;;;;;;;;;;;19.35;54.70;95320.47;5030851;28;19946;-77
2023/03/13 12:18:13;;;;;;;;;;;;;;;19.42;54.73;95317.41;5031030;28;19960;-77
2023/03/13 12:20:52;;;;;;;;;;;;;;;19.40;53.09;95300.97;5030658;28;20397;-76
2023/03/13 12:23:20;;;;;;;;;;;;;;;19.26;52.80;95301.03;5030919;28;20314;-77
2023/03/13 12:25:54;;;;;;;;;;;;;;;19.29;55.28;95297.75;5030558;28;19953;-75
2023/03/13 12:28:24;;;;;;;;;;;;;;;19.29;52.89;95278.38;5030585;28;19950;-77
2023/03/13 12:31:09;;;;;;;;;;;;;;;19.27;54.28;95266.16;5030819;28;19957;-76
2023/03/13 12:33:37;;;;;;;;;;;;;;;19.30;53.66;95261.31;5030620;28;19965;-77
2023/03/13 12:36:08;;;;;;;;;;;;;;;19.32;53.51;95259.16;5033840;28;19943;-76
2023/03/13 12:38:40;;;;;;;;;;;;;;;19.31;53.32;95266.34;5034315;28;20415;-77
2023/03/13 12:41:09;;;;;;;;;;;;;;;19.41;53.50;95260.78;5034116;28;19947;-76
2023/03/13 12:43:38;;;;;;;;;;;;;;;19.50;52.34;95239.56;5034523;28;20390;-76
2023/03/13 12:46:16;;;;;;;;;;;;;;;19.57;52.88;95239.13;5034045;28;20415;-74
2023/03/13 12:48:48;;;;;;;;;;;;;;;19.61;52.10;95229.44;5033940;28;19951;-76
2023/03/13 12:51:49;;;;;;;;;;;;;;;19.65;51.40;95215.25;5034167;28;20433;-77